sensor_id;sensor_type;location;lat;lon;timestamp;temperature;humidity
16511;DHT22;8368;48.772;8.754;2022-12-28T00:00:52;0.30;99.90
16511;DHT22;8368;48.772;8.754;2022-12-28T00:03:17;0.40;99.90
16511;DHT22;8368;48.772;8.754;2022-12-28T00:05:43;0.40;99.90
16511;DHT22;8368;48.772;8.754;2022-12-28T00:08:09;0.40;99.90
16511;DHT22;8368;48.772;8.754;2022-12-28T00:10:34;0.50;99.90
16511;DHT22;8368;48.772;8.754;2022-12-28T00:13:00;0.50;99.90
16511;DHT22;8368;48.772;8.754;2022-12-28T00:15:25;0.60;99.90
16511;DHT22;8368;48.772;8.754;2022-12-28T00:17:51;0.60;99.90
16511;DHT22;8368;48.772;8.754;2022-12-28T00:20:16;0.70;99.90
16511;DHT22;8368;48.772;8.754;2022-12-28T00:22:42;0.70;99.90
16511;DHT22;8368;48.772;8.754;2022-12-28T00:25:08;0.60;99.90
16511;DHT22;8368;48.772;8.754;2022-12-28T00:27:34;0.70;99.90
16511;DHT22;8368;48.772;8.754;2022-12-28T00:29:59;0.70;99.90
16511;DHT22;8368;48.772;8.754;2022-12-28T00:32:25;0.70;99.90
16511;DHT22;8368;48.772;8.754;2022-12-28T00:34:51;0.70;99.90
16511;DHT22;8368;48.772;8.754;2022-12-28T00:37:16;0.80;99.90
16511;DHT22;8368;48.772;8.754;2022-12-28T00:39:42;0.70;99.90
16511;DHT22;8368;48.772;8.754;2022-12-28T00:42:08;0.80;99.90
16511;DHT22;8368;48.772;8.754;2022-12-28T00:44:33;0.90;99.90
16511;DHT22;8368;48.772;8.754;2022-12-28T00:46:59;0.80;99.90
16511;DHT22;8368;48.772;8.754;2022-12-28T00:49:24;0.80;99.90
16511;DHT22;8368;48.772;8.754;2022-12-28T00:51:50;0.80;99.90
16511;DHT22;8368;48.772;8.754;2022-12-28T00:54:15;0.90;99.90
16511;DHT22;8368;48.772;8.754;2022-12-28T00:56:41;0.80;99.90
16511;DHT22;8368;48.772;8.754;2022-12-28T00:59:10;0.80;99.90
16511;DHT22;8368;48.772;8.754;2022-12-28T01:01:36;0.80;99.90
16511;DHT22;8368;48.772;8.754;2022-12-28T01:04:02;0.90;99.90
16511;DHT22;8368;48.772;8.754;2022-12-28T01:06:28;0.90;99.90
16511;DHT22;8368;48.772;8.754;2022-12-28T01:08:54;1.00;99.90
16511;DHT22;8368;48.772;8.754;2022-12-28T01:11:25;1.00;99.90
16511;DHT22;8368;48.772;8.754;2022-12-28T01:13:52;1.10;99.90
16511;DHT22;8368;48.772;8.754;2022-12-28T01:16:23;1.10;99.90
16511;DHT22;8368;48.772;8.754;2022-12-28T01:18:54;1.20;99.90
16511;DHT22;8368;48.772;8.754;2022-12-28T01:21:22;1.20;99.90
16511;DHT22;8368;48.772;8.754;2022-12-28T01:23:51;1.30;99.90
16511;DHT22;8368;48.772;8.754;2022-12-28T01:26:17;1.40;99.90
16511;DHT22;8368;48.772;8.754;2022-12-28T01:28:42;1.50;99.90
16511;DHT22;8368;48.772;8.754;2022-12-28T01:31:10;1.60;99.90
16511;DHT22;8368;48.772;8.754;2022-12-28T01:33:37;1.70;99.90
16511;DHT22;8368;48.772;8.754;2022-12-28T01:38:36;1.80;99.90
16511;DHT22;8368;48.772;8.754;2022-12-28T01:41:02;1.80;99.90
16511;DHT22;8368;48.772;8.754;2022-12-28T01:43:43;1.90;99.90
16511;DHT22;8368;48.772;8.754;2022-12-28T01:46:15;1.90;99.90
16511;DHT22;8368;48.772;8.754;2022-12-28T01:51:20;1.90;99.90
16511;DHT22;8368;48.772;8.754;2022-12-28T01:53:47;2.00;99.90
16511;DHT22;8368;48.772;8.754;2022-12-28T01:56:14;2.00;99.90
16511;DHT22;8368;48.772;8.754;2022-12-28T01:58:40;2.00;99.90
16511;DHT22;8368;48.772;8.754;2022-12-28T02:01:06;2.00;99.90
16511;DHT22;8368;48.772;8.754;2022-12-28T02:03:32;2.00;99.90
16511;DHT22;8368;48.772;8.754;2022-12-28T02:06:00;2.00;99.90
16511;DHT22;8368;48.772;8.754;2022-12-28T02:08:47;1.90;99.90
16511;DHT22;8368;48.772;8.754;2022-12-28T02:11:15;2.00;99.90
16511;DHT22;8368;48.772;8.754;2022-12-28T02:13:43;2.00;99.90
16511;DHT22;8368;48.772;8.754;2022-12-28T02:16:10;1.90;99.90
16511;DHT22;8368;48.772;8.754;2022-12-28T02:18:36;1.90;99.90
16511;DHT22;8368;48.772;8.754;2022-12-28T02:23:37;1.90;99.90
16511;DHT22;8368;48.772;8.754;2022-12-28T02:29:07;1.90;99.90
16511;DHT22;8368;48.772;8.754;2022-12-28T02:31:51;1.90;99.90
16511;DHT22;8368;48.772;8.754;2022-12-28T02:34:31;1.90;99.90
16511;DHT22;8368;48.772;8.754;2022-12-28T02:37:06;1.90;99.90
16511;DHT22;8368;48.772;8.754;2022-12-28T02:39:40;1.90;99.90
16511;DHT22;8368;48.772;8.754;2022-12-28T02:42:06;1.90;99.90
16511;DHT22;8368;48.772;8.754;2022-12-28T02:44:35;1.90;99.90
16511;DHT22;8368;48.772;8.754;2022-12-28T02:47:19;1.90;99.90
16511;DHT22;8368;48.772;8.754;2022-12-28T02:50:06;1.80;99.90
16511;DHT22;8368;48.772;8.754;2022-12-28T02:53:00;1.90;99.90
16511;DHT22;8368;48.772;8.754;2022-12-28T02:56:04;1.80;99.90
16511;DHT22;8368;48.772;8.754;2022-12-28T03:04:34;1.90;99.90
16511;DHT22;8368;48.772;8.754;2022-12-28T03:15:33;2.00;99.90
16511;DHT22;8368;48.772;8.754;2022-12-28T03:20:45;2.00;99.90
16511;DHT22;8368;48.772;8.754;2022-12-28T03:23:31;2.00;99.90
16511;DHT22;8368;48.772;8.754;2022-12-28T03:26:18;2.00;99.90
16511;DHT22;8368;48.772;8.754;2022-12-28T03:29:05;1.90;99.90
16511;DHT22;8368;48.772;8.754;2022-12-28T03:31:51;2.00;99.90
16511;DHT22;8368;48.772;8.754;2022-12-28T03:34:17;2.00;99.90
16511;DHT22;8368;48.772;8.754;2022-12-28T03:39:52;2.00;99.90
16511;DHT22;8368;48.772;8.754;2022-12-28T03:42:33;2.00;99.90
16511;DHT22;8368;48.772;8.754;2022-12-28T03:47:53;2.00;99.90
16511;DHT22;8368;48.772;8.754;2022-12-28T03:50:20;2.00;99.90
16511;DHT22;8368;48.772;8.754;2022-12-28T03:52:46;2.10;99.90
16511;DHT22;8368;48.772;8.754;2022-12-28T03:55:13;2.10;99.90
16511;DHT22;8368;48.772;8.754;2022-12-28T03:57:39;2.10;99.90
16511;DHT22;8368;48.772;8.754;2022-12-28T04:00:06;2.10;99.90
16511;DHT22;8368;48.772;8.754;2022-12-28T04:02:33;2.10;99.90
16511;DHT22;8368;48.772;8.754;2022-12-28T04:04:59;2.10;99.90
16511;DHT22;8368;48.772;8.754;2022-12-28T04:07:25;2.10;99.90
16511;DHT22;8368;48.772;8.754;2022-12-28T04:09:50;2.10;99.90
16511;DHT22;8368;48.772;8.754;2022-12-28T04:12:16;2.10;99.90
16511;DHT22;8368;48.772;8.754;2022-12-28T04:14:41;2.10;99.90
16511;DHT22;8368;48.772;8.754;2022-12-28T04:17:07;2.20;99.90
16511;DHT22;8368;48.772;8.754;2022-12-28T04:19:32;2.20;99.90
16511;DHT22;8368;48.772;8.754;2022-12-28T04:21:58;2.20;99.90
16511;DHT22;8368;48.772;8.754;2022-12-28T04:24:23;2.20;99.90
16511;DHT22;8368;48.772;8.754;2022-12-28T04:26:49;2.20;99.90
16511;DHT22;8368;48.772;8.754;2022-12-28T04:29:14;2.20;99.90
16511;DHT22;8368;48.772;8.754;2022-12-28T04:31:40;2.20;99.90
16511;DHT22;8368;48.772;8.754;2022-12-28T04:34:05;2.10;99.90
16511;DHT22;8368;48.772;8.754;2022-12-28T04:36:32;2.20;99.90
16511;DHT22;8368;48.772;8.754;2022-12-28T04:38:58;2.20;99.90
16511;DHT22;8368;48.772;8.754;2022-12-28T04:41:24;2.20;99.90
16511;DHT22;8368;48.772;8.754;2022-12-28T04:43:50;2.20;99.90
16511;DHT22;8368;48.772;8.754;2022-12-28T04:46:18;2.20;99.90
16511;DHT22;8368;48.772;8.754;2022-12-28T04:48:43;2.20;99.90
16511;DHT22;8368;48.772;8.754;2022-12-28T04:51:21;2.20;99.90
16511;DHT22;8368;48.772;8.754;2022-12-28T04:53:47;2.20;99.90
16511;DHT22;8368;48.772;8.754;2022-12-28T04:56:14;2.20;99.90
16511;DHT22;8368;48.772;8.754;2022-12-28T04:58:40;2.10;99.90
16511;DHT22;8368;48.772;8.754;2022-12-28T05:01:10;2.10;99.90
16511;DHT22;8368;48.772;8.754;2022-12-28T05:03:37;2.10;99.90
16511;DHT22;8368;48.772;8.754;2022-12-28T05:06:05;2.10;99.90
16511;DHT22;8368;48.772;8.754;2022-12-28T05:08:35;2.10;99.90
16511;DHT22;8368;48.772;8.754;2022-12-28T05:11:02;2.20;99.90
16511;DHT22;8368;48.772;8.754;2022-12-28T05:13:28;2.20;99.90
16511;DHT22;8368;48.772;8.754;2022-12-28T05:15:54;2.30;99.90
16511;DHT22;8368;48.772;8.754;2022-12-28T05:18:20;2.40;99.90
16511;DHT22;8368;48.772;8.754;2022-12-28T05:20:45;2.50;99.90
16511;DHT22;8368;48.772;8.754;2022-12-28T05:23:11;2.50;99.90
16511;DHT22;8368;48.772;8.754;2022-12-28T05:25:36;2.50;99.90
16511;DHT22;8368;48.772;8.754;2022-12-28T05:28:02;2.40;99.90
16511;DHT22;8368;48.772;8.754;2022-12-28T05:30:28;2.40;99.90
16511;DHT22;8368;48.772;8.754;2022-12-28T05:32:53;2.40;99.90
16511;DHT22;8368;48.772;8.754;2022-12-28T05:35:19;2.40;99.90
16511;DHT22;8368;48.772;8.754;2022-12-28T05:37:45;2.50;99.90
16511;DHT22;8368;48.772;8.754;2022-12-28T05:40:10;2.50;99.90
16511;DHT22;8368;48.772;8.754;2022-12-28T05:42:36;2.50;99.90
16511;DHT22;8368;48.772;8.754;2022-12-28T05:45:02;2.60;99.90
16511;DHT22;8368;48.772;8.754;2022-12-28T05:47:27;2.60;99.90
16511;DHT22;8368;48.772;8.754;2022-12-28T05:49:53;2.60;99.90
16511;DHT22;8368;48.772;8.754;2022-12-28T05:52:18;2.60;99.90
16511;DHT22;8368;48.772;8.754;2022-12-28T05:54:44;2.60;99.90
16511;DHT22;8368;48.772;8.754;2022-12-28T05:57:09;2.60;99.90
16511;DHT22;8368;48.772;8.754;2022-12-28T05:59:35;2.60;99.90
16511;DHT22;8368;48.772;8.754;2022-12-28T06:02:01;2.70;99.90
16511;DHT22;8368;48.772;8.754;2022-12-28T06:04:26;2.70;99.90
16511;DHT22;8368;48.772;8.754;2022-12-28T06:06:52;2.70;99.90
16511;DHT22;8368;48.772;8.754;2022-12-28T06:09:19;2.70;99.90
16511;DHT22;8368;48.772;8.754;2022-12-28T06:11:45;2.70;99.90
16511;DHT22;8368;48.772;8.754;2022-12-28T06:14:10;2.80;99.90
16511;DHT22;8368;48.772;8.754;2022-12-28T06:16:39;2.80;99.90
16511;DHT22;8368;48.772;8.754;2022-12-28T06:19:06;2.90;99.90
16511;DHT22;8368;48.772;8.754;2022-12-28T06:21:33;2.90;99.90
16511;DHT22;8368;48.772;8.754;2022-12-28T06:24:01;2.90;99.90
16511;DHT22;8368;48.772;8.754;2022-12-28T06:26:30;2.90;99.90
16511;DHT22;8368;48.772;8.754;2022-12-28T06:28:57;3.00;99.90
16511;DHT22;8368;48.772;8.754;2022-12-28T06:31:25;3.00;99.90
16511;DHT22;8368;48.772;8.754;2022-12-28T06:33:53;3.00;99.90
16511;DHT22;8368;48.772;8.754;2022-12-28T06:36:22;3.00;99.90
16511;DHT22;8368;48.772;8.754;2022-12-28T06:38:49;3.00;99.90
16511;DHT22;8368;48.772;8.754;2022-12-28T06:41:16;3.00;99.90
16511;DHT22;8368;48.772;8.754;2022-12-28T06:43:43;3.00;99.90
16511;DHT22;8368;48.772;8.754;2022-12-28T06:46:09;3.00;99.90
16511;DHT22;8368;48.772;8.754;2022-12-28T06:48:36;3.00;99.90
16511;DHT22;8368;48.772;8.754;2022-12-28T06:53:31;3.00;99.90
16511;DHT22;8368;48.772;8.754;2022-12-28T06:56:00;3.00;99.90
16511;DHT22;8368;48.772;8.754;2022-12-28T06:58:27;3.00;99.90
16511;DHT22;8368;48.772;8.754;2022-12-28T07:00:54;3.10;99.90
16511;DHT22;8368;48.772;8.754;2022-12-28T07:03:21;3.10;99.90
16511;DHT22;8368;48.772;8.754;2022-12-28T07:05:47;3.20;99.90
16511;DHT22;8368;48.772;8.754;2022-12-28T07:08:13;3.20;99.90
16511;DHT22;8368;48.772;8.754;2022-12-28T07:10:38;3.20;99.90
16511;DHT22;8368;48.772;8.754;2022-12-28T07:13:04;3.20;99.90
16511;DHT22;8368;48.772;8.754;2022-12-28T07:15:30;3.30;99.90
16511;DHT22;8368;48.772;8.754;2022-12-28T07:17:57;3.30;99.90
16511;DHT22;8368;48.772;8.754;2022-12-28T07:20:22;3.30;99.90
16511;DHT22;8368;48.772;8.754;2022-12-28T07:22:48;3.40;99.90
16511;DHT22;8368;48.772;8.754;2022-12-28T07:25:13;3.40;99.90
16511;DHT22;8368;48.772;8.754;2022-12-28T07:27:39;3.40;99.90
16511;DHT22;8368;48.772;8.754;2022-12-28T07:30:05;3.50;99.90
16511;DHT22;8368;48.772;8.754;2022-12-28T07:32:30;3.50;99.90
16511;DHT22;8368;48.772;8.754;2022-12-28T07:34:56;3.60;99.90
16511;DHT22;8368;48.772;8.754;2022-12-28T07:37:21;3.60;99.90
16511;DHT22;8368;48.772;8.754;2022-12-28T07:39:47;3.60;99.90
16511;DHT22;8368;48.772;8.754;2022-12-28T07:42:12;3.70;99.90
16511;DHT22;8368;48.772;8.754;2022-12-28T07:44:38;3.70;99.90
16511;DHT22;8368;48.772;8.754;2022-12-28T07:47:07;3.70;99.90
16511;DHT22;8368;48.772;8.754;2022-12-28T07:49:32;3.70;99.90
16511;DHT22;8368;48.772;8.754;2022-12-28T07:51:58;3.70;99.90
16511;DHT22;8368;48.772;8.754;2022-12-28T07:54:24;3.80;99.90
16511;DHT22;8368;48.772;8.754;2022-12-28T07:56:49;3.80;99.90
16511;DHT22;8368;48.772;8.754;2022-12-28T07:59:15;3.80;99.90
16511;DHT22;8368;48.772;8.754;2022-12-28T08:01:40;3.80;99.90
16511;DHT22;8368;48.772;8.754;2022-12-28T08:04:08;3.90;99.90
16511;DHT22;8368;48.772;8.754;2022-12-28T08:06:37;3.90;99.90
16511;DHT22;8368;48.772;8.754;2022-12-28T08:09:04;3.90;99.90
16511;DHT22;8368;48.772;8.754;2022-12-28T08:11:32;3.90;99.90
16511;DHT22;8368;48.772;8.754;2022-12-28T08:13:59;4.00;99.90
16511;DHT22;8368;48.772;8.754;2022-12-28T08:16:27;4.00;99.90
16511;DHT22;8368;48.772;8.754;2022-12-28T08:18:53;4.00;99.90
16511;DHT22;8368;48.772;8.754;2022-12-28T08:21:24;4.10;99.90
16511;DHT22;8368;48.772;8.754;2022-12-28T08:23:51;4.10;99.90
16511;DHT22;8368;48.772;8.754;2022-12-28T08:26:21;4.10;99.90
16511;DHT22;8368;48.772;8.754;2022-12-28T08:28:49;4.10;99.90
16511;DHT22;8368;48.772;8.754;2022-12-28T08:31:23;4.10;99.90
16511;DHT22;8368;48.772;8.754;2022-12-28T08:33:49;4.20;99.90
16511;DHT22;8368;48.772;8.754;2022-12-28T08:36:15;4.20;99.90
16511;DHT22;8368;48.772;8.754;2022-12-28T08:38:42;4.30;99.90
16511;DHT22;8368;48.772;8.754;2022-12-28T08:41:11;4.30;99.90
16511;DHT22;8368;48.772;8.754;2022-12-28T08:43:37;4.40;99.90
16511;DHT22;8368;48.772;8.754;2022-12-28T08:46:03;4.40;99.90
16511;DHT22;8368;48.772;8.754;2022-12-28T08:48:29;4.40;99.90
16511;DHT22;8368;48.772;8.754;2022-12-28T08:51:04;4.50;99.90
16511;DHT22;8368;48.772;8.754;2022-12-28T08:53:30;4.50;99.90
16511;DHT22;8368;48.772;8.754;2022-12-28T08:56:03;4.60;99.90
16511;DHT22;8368;48.772;8.754;2022-12-28T08:58:28;4.60;99.90
16511;DHT22;8368;48.772;8.754;2022-12-28T09:00:54;4.70;99.90
16511;DHT22;8368;48.772;8.754;2022-12-28T09:03:20;4.60;99.90
16511;DHT22;8368;48.772;8.754;2022-12-28T09:05:45;4.70;99.90
16511;DHT22;8368;48.772;8.754;2022-12-28T09:08:11;4.60;99.90
16511;DHT22;8368;48.772;8.754;2022-12-28T09:10:36;4.60;99.90
16511;DHT22;8368;48.772;8.754;2022-12-28T09:13:02;4.70;99.90
16511;DHT22;8368;48.772;8.754;2022-12-28T09:15:28;4.70;99.90
16511;DHT22;8368;48.772;8.754;2022-12-28T09:17:53;4.70;99.90
16511;DHT22;8368;48.772;8.754;2022-12-28T09:20:19;4.80;99.90
16511;DHT22;8368;48.772;8.754;2022-12-28T09:22:44;4.80;99.90
16511;DHT22;8368;48.772;8.754;2022-12-28T09:25:10;4.90;99.90
16511;DHT22;8368;48.772;8.754;2022-12-28T09:27:35;4.90;99.90
16511;DHT22;8368;48.772;8.754;2022-12-28T09:30:01;4.90;99.90
16511;DHT22;8368;48.772;8.754;2022-12-28T09:32:27;4.90;99.90
16511;DHT22;8368;48.772;8.754;2022-12-28T09:34:53;4.90;99.90
16511;DHT22;8368;48.772;8.754;2022-12-28T09:37:18;5.00;99.90
16511;DHT22;8368;48.772;8.754;2022-12-28T09:39:44;5.00;99.90
16511;DHT22;8368;48.772;8.754;2022-12-28T09:42:21;5.10;99.90
16511;DHT22;8368;48.772;8.754;2022-12-28T09:45:09;5.10;99.90
16511;DHT22;8368;48.772;8.754;2022-12-28T09:47:46;5.20;99.90
16511;DHT22;8368;48.772;8.754;2022-12-28T09:53:06;5.20;99.90
16511;DHT22;8368;48.772;8.754;2022-12-28T09:55:33;5.30;99.90
16511;DHT22;8368;48.772;8.754;2022-12-28T09:57:59;5.20;99.90
16511;DHT22;8368;48.772;8.754;2022-12-28T10:03:00;5.40;99.90
16511;DHT22;8368;48.772;8.754;2022-12-28T10:05:28;5.40;99.90
16511;DHT22;8368;48.772;8.754;2022-12-28T10:07:56;5.50;99.90
16511;DHT22;8368;48.772;8.754;2022-12-28T10:10:23;5.50;99.90
16511;DHT22;8368;48.772;8.754;2022-12-28T10:12:50;5.50;99.90
16511;DHT22;8368;48.772;8.754;2022-12-28T10:15:16;5.60;99.90
16511;DHT22;8368;48.772;8.754;2022-12-28T10:17:43;5.60;99.90
16511;DHT22;8368;48.772;8.754;2022-12-28T10:20:20;5.70;99.90
16511;DHT22;8368;48.772;8.754;2022-12-28T10:22:52;5.70;99.90
16511;DHT22;8368;48.772;8.754;2022-12-28T10:25:20;5.80;99.90
16511;DHT22;8368;48.772;8.754;2022-12-28T10:27:46;5.90;99.90
16511;DHT22;8368;48.772;8.754;2022-12-28T10:30:22;5.90;99.90
16511;DHT22;8368;48.772;8.754;2022-12-28T10:32:58;6.00;99.90
16511;DHT22;8368;48.772;8.754;2022-12-28T10:35:31;6.00;99.90
16511;DHT22;8368;48.772;8.754;2022-12-28T10:38:01;6.10;99.90
16511;DHT22;8368;48.772;8.754;2022-12-28T10:40:31;6.10;99.90
16511;DHT22;8368;48.772;8.754;2022-12-28T10:42:58;6.10;99.90
16511;DHT22;8368;48.772;8.754;2022-12-28T10:47:57;6.20;99.90
16511;DHT22;8368;48.772;8.754;2022-12-28T10:50:52;6.20;99.90
16511;DHT22;8368;48.772;8.754;2022-12-28T10:53:41;6.30;99.90
16511;DHT22;8368;48.772;8.754;2022-12-28T10:58:39;6.40;99.90
16511;DHT22;8368;48.772;8.754;2022-12-28T11:01:25;6.50;99.90
16511;DHT22;8368;48.772;8.754;2022-12-28T11:06:54;6.50;99.90
16511;DHT22;8368;48.772;8.754;2022-12-28T11:09:21;6.60;99.90
16511;DHT22;8368;48.772;8.754;2022-12-28T11:11:48;6.50;99.90
16511;DHT22;8368;48.772;8.754;2022-12-28T11:16:55;6.50;99.90
16511;DHT22;8368;48.772;8.754;2022-12-28T11:19:21;6.50;99.90
16511;DHT22;8368;48.772;8.754;2022-12-28T11:21:48;6.40;99.90
16511;DHT22;8368;48.772;8.754;2022-12-28T11:24:15;6.40;99.90
16511;DHT22;8368;48.772;8.754;2022-12-28T11:26:47;6.40;99.90
16511;DHT22;8368;48.772;8.754;2022-12-28T11:29:16;6.30;99.90
16511;DHT22;8368;48.772;8.754;2022-12-28T11:32:04;6.30;99.90
16511;DHT22;8368;48.772;8.754;2022-12-28T11:34:31;6.30;99.90
16511;DHT22;8368;48.772;8.754;2022-12-28T11:36:57;6.40;99.90
16511;DHT22;8368;48.772;8.754;2022-12-28T11:41:52;6.50;99.90
16511;DHT22;8368;48.772;8.754;2022-12-28T11:49:42;6.70;99.90
16511;DHT22;8368;48.772;8.754;2022-12-28T11:54:52;6.80;99.90
16511;DHT22;8368;48.772;8.754;2022-12-28T11:57:38;6.80;99.90
16511;DHT22;8368;48.772;8.754;2022-12-28T12:02:50;6.90;99.90
16511;DHT22;8368;48.772;8.754;2022-12-28T12:10:44;7.10;99.90
16511;DHT22;8368;48.772;8.754;2022-12-28T12:16:02;7.40;99.90
16511;DHT22;8368;48.772;8.754;2022-12-28T12:18:44;7.50;99.90
16511;DHT22;8368;48.772;8.754;2022-12-28T12:21:31;7.70;99.90
16511;DHT22;8368;48.772;8.754;2022-12-28T12:26:49;8.00;99.90
16511;DHT22;8368;48.772;8.754;2022-12-28T12:29:29;8.20;99.90
16511;DHT22;8368;48.772;8.754;2022-12-28T12:32:04;8.30;99.90
16511;DHT22;8368;48.772;8.754;2022-12-28T12:34:54;8.40;99.90
16511;DHT22;8368;48.772;8.754;2022-12-28T12:43:09;8.60;99.90
16511;DHT22;8368;48.772;8.754;2022-12-28T12:48:26;8.50;99.90
16511;DHT22;8368;48.772;8.754;2022-12-28T12:51:16;8.40;99.90
16511;DHT22;8368;48.772;8.754;2022-12-28T12:59:35;8.00;99.90
16511;DHT22;8368;48.772;8.754;2022-12-28T13:04:39;7.60;99.90
16511;DHT22;8368;48.772;8.754;2022-12-28T13:07:17;7.50;99.90
16511;DHT22;8368;48.772;8.754;2022-12-28T13:09:43;7.40;99.90
16511;DHT22;8368;48.772;8.754;2022-12-28T13:12:14;7.30;99.90
16511;DHT22;8368;48.772;8.754;2022-12-28T13:14:49;7.30;99.90
16511;DHT22;8368;48.772;8.754;2022-12-28T13:17:19;7.20;99.90
16511;DHT22;8368;48.772;8.754;2022-12-28T13:19:45;7.10;99.90
16511;DHT22;8368;48.772;8.754;2022-12-28T13:22:29;7.10;99.90
16511;DHT22;8368;48.772;8.754;2022-12-28T13:24:55;7.10;99.90
16511;DHT22;8368;48.772;8.754;2022-12-28T13:27:23;7.00;99.90
16511;DHT22;8368;48.772;8.754;2022-12-28T13:29:52;7.00;99.90
16511;DHT22;8368;48.772;8.754;2022-12-28T13:32:29;7.00;99.90
16511;DHT22;8368;48.772;8.754;2022-12-28T13:34:55;7.00;99.90
16511;DHT22;8368;48.772;8.754;2022-12-28T13:37:21;7.00;99.90
16511;DHT22;8368;48.772;8.754;2022-12-28T13:39:47;6.90;99.90
16511;DHT22;8368;48.772;8.754;2022-12-28T13:42:17;7.00;99.90
16511;DHT22;8368;48.772;8.754;2022-12-28T13:44:47;7.00;99.90
16511;DHT22;8368;48.772;8.754;2022-12-28T13:47:23;7.00;99.90
16511;DHT22;8368;48.772;8.754;2022-12-28T13:53:11;7.00;99.90
16511;DHT22;8368;48.772;8.754;2022-12-28T13:55:38;7.10;99.90
16511;DHT22;8368;48.772;8.754;2022-12-28T13:58:11;7.10;99.90
16511;DHT22;8368;48.772;8.754;2022-12-28T14:00:38;7.10;99.90
16511;DHT22;8368;48.772;8.754;2022-12-28T14:03:08;7.10;99.90
16511;DHT22;8368;48.772;8.754;2022-12-28T14:05:35;7.10;99.90
16511;DHT22;8368;48.772;8.754;2022-12-28T14:08:04;7.10;99.90
16511;DHT22;8368;48.772;8.754;2022-12-28T14:10:30;7.10;99.90
16511;DHT22;8368;48.772;8.754;2022-12-28T14:12:56;7.00;99.90
16511;DHT22;8368;48.772;8.754;2022-12-28T14:15:22;6.90;99.90
16511;DHT22;8368;48.772;8.754;2022-12-28T14:17:49;6.80;99.90
16511;DHT22;8368;48.772;8.754;2022-12-28T14:20:15;6.80;99.90
16511;DHT22;8368;48.772;8.754;2022-12-28T14:22:41;6.80;99.90
16511;DHT22;8368;48.772;8.754;2022-12-28T14:25:18;6.70;99.90
16511;DHT22;8368;48.772;8.754;2022-12-28T14:28:04;6.70;99.90
16511;DHT22;8368;48.772;8.754;2022-12-28T14:30:40;6.70;99.90
16511;DHT22;8368;48.772;8.754;2022-12-28T14:33:48;6.70;99.90
16511;DHT22;8368;48.772;8.754;2022-12-28T14:36:19;6.60;99.90
16511;DHT22;8368;48.772;8.754;2022-12-28T14:38:48;6.60;99.90
16511;DHT22;8368;48.772;8.754;2022-12-28T14:41:20;6.60;99.90
16511;DHT22;8368;48.772;8.754;2022-12-28T14:43:55;6.60;99.90
16511;DHT22;8368;48.772;8.754;2022-12-28T14:46:36;6.60;99.90
16511;DHT22;8368;48.772;8.754;2022-12-28T14:51:54;6.50;99.90
16511;DHT22;8368;48.772;8.754;2022-12-28T14:54:22;6.50;99.90
16511;DHT22;8368;48.772;8.754;2022-12-28T14:56:55;6.50;99.90
16511;DHT22;8368;48.772;8.754;2022-12-28T15:01:53;6.40;99.90
16511;DHT22;8368;48.772;8.754;2022-12-28T15:04:39;6.30;99.90
16511;DHT22;8368;48.772;8.754;2022-12-28T15:07:07;6.30;99.90
16511;DHT22;8368;48.772;8.754;2022-12-28T15:09:33;6.30;99.90
16511;DHT22;8368;48.772;8.754;2022-12-28T15:12:14;6.20;99.90
16511;DHT22;8368;48.772;8.754;2022-12-28T15:14:40;6.20;99.90
16511;DHT22;8368;48.772;8.754;2022-12-28T15:17:07;6.10;99.90
16511;DHT22;8368;48.772;8.754;2022-12-28T15:19:34;6.10;99.90
16511;DHT22;8368;48.772;8.754;2022-12-28T15:21:59;6.00;99.90
16511;DHT22;8368;48.772;8.754;2022-12-28T15:24:25;5.90;99.90
16511;DHT22;8368;48.772;8.754;2022-12-28T15:26:51;5.90;99.90
16511;DHT22;8368;48.772;8.754;2022-12-28T15:29:17;5.80;99.90
16511;DHT22;8368;48.772;8.754;2022-12-28T15:31:43;5.80;99.90
16511;DHT22;8368;48.772;8.754;2022-12-28T15:34:08;5.70;99.90
16511;DHT22;8368;48.772;8.754;2022-12-28T15:36:34;5.70;99.90
16511;DHT22;8368;48.772;8.754;2022-12-28T15:38:59;5.70;99.90
16511;DHT22;8368;48.772;8.754;2022-12-28T15:41:27;5.70;99.90
16511;DHT22;8368;48.772;8.754;2022-12-28T15:44:18;5.60;99.90
16511;DHT22;8368;48.772;8.754;2022-12-28T15:46:45;5.60;99.90
16511;DHT22;8368;48.772;8.754;2022-12-28T15:49:14;5.50;99.90
16511;DHT22;8368;48.772;8.754;2022-12-28T15:51:40;5.50;99.90
16511;DHT22;8368;48.772;8.754;2022-12-28T15:54:06;5.50;99.90
16511;DHT22;8368;48.772;8.754;2022-12-28T15:56:34;5.40;99.90
16511;DHT22;8368;48.772;8.754;2022-12-28T15:59:01;5.40;99.90
16511;DHT22;8368;48.772;8.754;2022-12-28T16:01:29;5.30;99.90
16511;DHT22;8368;48.772;8.754;2022-12-28T16:03:57;5.30;99.90
16511;DHT22;8368;48.772;8.754;2022-12-28T16:06:23;5.30;99.90
16511;DHT22;8368;48.772;8.754;2022-12-28T16:08:57;5.30;99.90
16511;DHT22;8368;48.772;8.754;2022-12-28T16:11:24;5.30;99.90
16511;DHT22;8368;48.772;8.754;2022-12-28T16:13:57;5.30;99.90
16511;DHT22;8368;48.772;8.754;2022-12-28T16:16:25;5.30;99.90
16511;DHT22;8368;48.772;8.754;2022-12-28T16:18:54;5.20;99.90
16511;DHT22;8368;48.772;8.754;2022-12-28T16:21:22;5.20;99.90
16511;DHT22;8368;48.772;8.754;2022-12-28T16:23:47;5.20;99.90
16511;DHT22;8368;48.772;8.754;2022-12-28T16:26:13;5.10;99.90
16511;DHT22;8368;48.772;8.754;2022-12-28T16:28:39;5.10;99.90
16511;DHT22;8368;48.772;8.754;2022-12-28T16:31:05;5.10;99.90
16511;DHT22;8368;48.772;8.754;2022-12-28T16:33:31;5.10;99.90
16511;DHT22;8368;48.772;8.754;2022-12-28T16:35:57;5.10;99.90
16511;DHT22;8368;48.772;8.754;2022-12-28T16:38:25;5.10;99.90
16511;DHT22;8368;48.772;8.754;2022-12-28T16:40:51;5.10;99.90
16511;DHT22;8368;48.772;8.754;2022-12-28T16:43:19;5.10;99.90
16511;DHT22;8368;48.772;8.754;2022-12-28T16:45:44;5.10;99.90
16511;DHT22;8368;48.772;8.754;2022-12-28T16:48:12;5.10;99.90
16511;DHT22;8368;48.772;8.754;2022-12-28T16:50:38;5.10;99.90
16511;DHT22;8368;48.772;8.754;2022-12-28T16:53:04;5.10;99.90
16511;DHT22;8368;48.772;8.754;2022-12-28T16:55:34;5.10;99.90
16511;DHT22;8368;48.772;8.754;2022-12-28T16:58:02;5.20;99.90
16511;DHT22;8368;48.772;8.754;2022-12-28T17:00:27;5.20;99.90
16511;DHT22;8368;48.772;8.754;2022-12-28T17:02:53;5.20;99.90
16511;DHT22;8368;48.772;8.754;2022-12-28T17:05:18;5.20;99.90
16511;DHT22;8368;48.772;8.754;2022-12-28T17:07:44;5.20;99.90
16511;DHT22;8368;48.772;8.754;2022-12-28T17:10:09;5.20;99.90
16511;DHT22;8368;48.772;8.754;2022-12-28T17:12:35;5.20;99.90
16511;DHT22;8368;48.772;8.754;2022-12-28T17:15:01;5.20;99.90
16511;DHT22;8368;48.772;8.754;2022-12-28T17:17:26;5.20;99.90
16511;DHT22;8368;48.772;8.754;2022-12-28T17:19:52;5.10;99.90
16511;DHT22;8368;48.772;8.754;2022-12-28T17:22:17;5.10;99.90
16511;DHT22;8368;48.772;8.754;2022-12-28T17:24:43;5.10;99.90
16511;DHT22;8368;48.772;8.754;2022-12-28T17:27:08;5.10;99.90
16511;DHT22;8368;48.772;8.754;2022-12-28T17:29:35;5.00;99.90
16511;DHT22;8368;48.772;8.754;2022-12-28T17:32:02;5.00;99.90
16511;DHT22;8368;48.772;8.754;2022-12-28T17:34:27;5.00;99.90
16511;DHT22;8368;48.772;8.754;2022-12-28T17:36:53;5.00;99.90
16511;DHT22;8368;48.772;8.754;2022-12-28T17:39:19;5.00;99.90
16511;DHT22;8368;48.772;8.754;2022-12-28T17:41:44;5.00;99.90
16511;DHT22;8368;48.772;8.754;2022-12-28T17:44:10;4.90;99.90
16511;DHT22;8368;48.772;8.754;2022-12-28T17:46:36;4.90;99.90
16511;DHT22;8368;48.772;8.754;2022-12-28T17:49:07;4.90;99.90
16511;DHT22;8368;48.772;8.754;2022-12-28T17:51:33;4.80;99.90
16511;DHT22;8368;48.772;8.754;2022-12-28T17:53:59;4.80;99.90